sensor_id;sensor_type;location;lat;lon;timestamp;pressure;altitude;pressure_sealevel;temperature;humidity
5703;BME280;2876;51.738;10.050;2023-04-22T00:01:26;98730.59;;;12.42;69.93
5703;BME280;2876;51.738;10.050;2023-04-22T00:07:29;98738.16;;;12.33;70.49
5703;BME280;2876;51.738;10.050;2023-04-22T00:13:31;98739.66;;;12.29;70.31
5703;BME280;2876;51.738;10.050;2023-04-22T00:19:33;98720.47;;;12.07;71.01
5703;BME280;2876;51.738;10.050;2023-04-22T00:25:35;98722.72;;;12.10;70.69
5703;BME280;2876;51.738;10.050;2023-04-22T00:31:37;98714.06;;;12.08;70.95
5703;BME280;2876;51.738;10.050;2023-04-22T00:37:39;98725.91;;;12.19;70.71
5703;BME280;2876;51.738;10.050;2023-04-22T00:43:42;98720.69;;;12.24;70.22
5703;BME280;2876;51.738;10.050;2023-04-22T00:49:43;98732.03;;;12.44;69.73
5703;BME280;2876;51.738;10.050;2023-04-22T00:55:45;98724.94;;;12.32;69.88
5703;BME280;2876;51.738;10.050;2023-04-22T01:01:47;98731.69;;;12.53;69.19
5703;BME280;2876;51.738;10.050;2023-04-22T01:07:49;98727.78;;;12.18;70.24
5703;BME280;2876;51.738;10.050;2023-04-22T01:13:52;98730.69;;;12.35;70.35
5703;BME280;2876;51.738;10.050;2023-04-22T01:19:54;98731.31;;;12.01;70.90
5703;BME280;2876;51.738;10.050;2023-04-22T01:25:56;98727.28;;;12.10;71.07
5703;BME280;2876;51.738;10.050;2023-04-22T01:31:58;98739.38;;;11.76;72.05
5703;BME280;2876;51.738;10.050;2023-04-22T01:38:07;98736.75;;;11.44;73.46
5703;BME280;2876;51.738;10.050;2023-04-22T01:44:09;98727.22;;;11.73;72.84
5703;BME280;2876;51.738;10.050;2023-04-22T01:50:11;98739.16;;;11.77;72.67
5703;BME280;2876;51.738;10.050;2023-04-22T01:56:14;98727.38;;;11.53;72.95
5703;BME280;2876;51.738;10.050;2023-04-22T02:02:16;98730.47;;;11.32;74.05
5703;BME280;2876;51.738;10.050;2023-04-22T02:08:18;98723.38;;;11.12;74.74
5703;BME280;2876;51.738;10.050;2023-04-22T02:14:19;98724.69;;;11.03;75.50
5703;BME280;2876;51.738;10.050;2023-04-22T02:20:21;98730.84;;;10.79;76.71
5703;BME280;2876;51.738;10.050;2023-04-22T02:26:23;98732.22;;;10.56;77.18
5703;BME280;2876;51.738;10.050;2023-04-22T02:32:26;98732.78;;;10.27;79.13
5703;BME280;2876;51.738;10.050;2023-04-22T02:38:28;98721.81;;;10.22;79.34
5703;BME280;2876;51.738;10.050;2023-04-22T02:44:30;98720.59;;;10.24;79.58
5703;BME280;2876;51.738;10.050;2023-04-22T02:50:32;98713.56;;;10.30;79.51
5703;BME280;2876;51.738;10.050;2023-04-22T02:56:34;98705.09;;;10.33;79.59
5703;BME280;2876;51.738;10.050;2023-04-22T03:02:37;98719.28;;;10.40;79.55
5703;BME280;2876;51.738;10.050;2023-04-22T03:08:39;98709.00;;;10.37;79.75
5703;BME280;2876;51.738;10.050;2023-04-22T03:14:41;98719.72;;;10.75;78.26
5703;BME280;2876;51.738;10.050;2023-04-22T03:20:43;98710.22;;;10.79;78.28
5703;BME280;2876;51.738;10.050;2023-04-22T03:26:45;98706.53;;;10.74;78.16
5703;BME280;2876;51.738;10.050;2023-04-22T03:32:47;98718.81;;;10.88;77.46
5703;BME280;2876;51.738;10.050;2023-04-22T03:38:49;98713.50;;;10.81;77.40
5703;BME280;2876;51.738;10.050;2023-04-22T03:44:52;98719.47;;;10.83;77.11
5703;BME280;2876;51.738;10.050;2023-04-22T03:50:54;98712.31;;;10.77;77.36
5703;BME280;2876;51.738;10.050;2023-04-22T03:56:56;98718.59;;;10.89;76.91
5703;BME280;2876;51.738;10.050;2023-04-22T04:02:59;98714.69;;;10.85;76.85
5703;BME280;2876;51.738;10.050;2023-04-22T04:09:01;98703.38;;;10.83;77.22
5703;BME280;2876;51.738;10.050;2023-04-22T04:15:05;98709.97;;;10.87;77.79
5703;BME280;2876;51.738;10.050;2023-04-22T04:21:07;98719.72;;;10.75;78.01
5703;BME280;2876;51.738;10.050;2023-04-22T04:27:09;98728.72;;;10.87;77.76
5703;BME280;2876;51.738;10.050;2023-04-22T04:33:12;98726.66;;;10.89;77.71
5703;BME280;2876;51.738;10.050;2023-04-22T04:39:17;98732.00;;;10.89;78.31
5703;BME280;2876;51.738;10.050;2023-04-22T04:45:19;98731.84;;;11.16;77.73
5703;BME280;2876;51.738;10.050;2023-04-22T04:51:21;98726.03;;;11.19;77.65
5703;BME280;2876;51.738;10.050;2023-04-22T04:57:23;98724.50;;;11.30;76.97
5703;BME280;2876;51.738;10.050;2023-04-22T05:03:25;98724.19;;;11.45;76.88
5703;BME280;2876;51.738;10.050;2023-04-22T05:09:27;98718.66;;;11.58;75.77
5703;BME280;2876;51.738;10.050;2023-04-22T05:15:29;98718.09;;;11.74;74.62
5703;BME280;2876;51.738;10.050;2023-04-22T05:21:31;98719.31;;;11.78;75.00
5703;BME280;2876;51.738;10.050;2023-04-22T05:27:33;98728.47;;;11.71;74.79
5703;BME280;2876;51.738;10.050;2023-04-22T05:33:36;98724.91;;;11.77;75.01
5703;BME280;2876;51.738;10.050;2023-04-22T05:39:38;98734.22;;;11.99;74.96
5703;BME280;2876;51.738;10.050;2023-04-22T05:45:41;98731.97;;;11.96;75.03
5703;BME280;2876;51.738;10.050;2023-04-22T05:51:44;98732.94;;;12.20;75.05
5703;BME280;2876;51.738;10.050;2023-04-22T05:57:46;98733.44;;;12.47;74.59
5703;BME280;2876;51.738;10.050;2023-04-22T06:03:47;98736.28;;;12.82;71.86
5703;BME280;2876;51.738;10.050;2023-04-22T06:09:50;98736.78;;;13.33;70.39
5703;BME280;2876;51.738;10.050;2023-04-22T06:16:05;98733.19;;;13.74;70.33
5703;BME280;2876;51.738;10.050;2023-04-22T06:22:10;98713.97;;;14.34;68.73
5703;BME280;2876;51.738;10.050;2023-04-22T06:28:12;98710.44;;;14.74;65.75
5703;BME280;2876;51.738;10.050;2023-04-22T06:34:14;98719.03;;;15.00;65.70
5703;BME280;2876;51.738;10.050;2023-04-22T06:40:16;98700.78;;;15.23;63.83
5703;BME280;2876;51.738;10.050;2023-04-22T06:46:18;98695.34;;;15.57;63.05
5703;BME280;2876;51.738;10.050;2023-04-22T06:52:20;98708.81;;;17.01;60.29
5703;BME280;2876;51.738;10.050;2023-04-22T06:58:24;98715.09;;;18.91;54.46
5703;BME280;2876;51.738;10.050;2023-04-22T07:04:26;98718.16;;;18.42;55.83
5703;BME280;2876;51.738;10.050;2023-04-22T07:10:30;98710.75;;;18.22;56.71
5703;BME280;2876;51.738;10.050;2023-04-22T07:16:32;98713.03;;;18.45;56.63
5703;BME280;2876;51.738;10.050;2023-04-22T07:22:33;98703.75;;;18.31;56.77
5703;BME280;2876;51.738;10.050;2023-04-22T07:28:35;98701.84;;;18.37;56.06
5703;BME280;2876;51.738;10.050;2023-04-22T07:34:37;98693.06;;;18.87;55.53
5703;BME280;2876;51.738;10.050;2023-04-22T07:40:39;98698.53;;;19.18;52.99
5703;BME280;2876;51.738;10.050;2023-04-22T07:46:41;98698.53;;;19.28;52.06
5703;BME280;2876;51.738;10.050;2023-04-22T07:52:44;98703.69;;;19.19;53.19
5703;BME280;2876;51.738;10.050;2023-04-22T07:58:45;98697.13;;;19.92;51.44
5703;BME280;2876;51.738;10.050;2023-04-22T08:04:47;98698.69;;;20.13;50.96
5703;BME280;2876;51.738;10.050;2023-04-22T08:10:50;98696.25;;;20.76;49.30
5703;BME280;2876;51.738;10.050;2023-04-22T08:16:51;98700.16;;;21.05;49.32
5703;BME280;2876;51.738;10.050;2023-04-22T08:22:53;98689.66;;;21.22;48.87
5703;BME280;2876;51.738;10.050;2023-04-22T08:29:01;98690.81;;;21.11;48.02
5703;BME280;2876;51.738;10.050;2023-04-22T08:35:03;98689.53;;;21.71;46.26
5703;BME280;2876;51.738;10.050;2023-04-22T08:41:06;98691.19;;;22.20;46.52
5703;BME280;2876;51.738;10.050;2023-04-22T08:47:09;98689.13;;;22.55;46.37
5703;BME280;2876;51.738;10.050;2023-04-22T08:53:12;98680.13;;;23.11;46.08
5703;BME280;2876;51.738;10.050;2023-04-22T08:59:15;98668.97;;;23.40;43.11
5703;BME280;2876;51.738;10.050;2023-04-22T09:05:17;98665.00;;;23.65;44.22
5703;BME280;2876;51.738;10.050;2023-04-22T09:11:23;98663.72;;;24.04;43.31
5703;BME280;2876;51.738;10.050;2023-04-22T09:17:32;98661.59;;;24.78;41.25
5703;BME280;2876;51.738;10.050;2023-04-22T09:23:53;98668.41;;;24.81;41.55
5703;BME280;2876;51.738;10.050;2023-04-22T09:29:55;98674.47;;;25.59;41.76
5703;BME280;2876;51.738;10.050;2023-04-22T09:35:57;98667.72;;;25.65;39.45
5703;BME280;2876;51.738;10.050;2023-04-22T09:41:59;98670.03;;;26.03;39.77
5703;BME280;2876;51.738;10.050;2023-04-22T09:48:18;98667.31;;;26.20;39.23
5703;BME280;2876;51.738;10.050;2023-04-22T09:54:22;98654.97;;;26.00;39.62
5703;BME280;2876;51.738;10.050;2023-04-22T10:00:30;98647.88;;;26.91;40.56
5703;BME280;2876;51.738;10.050;2023-04-22T10:06:32;98649.78;;;27.43;40.13
5703;BME280;2876;51.738;10.050;2023-04-22T10:12:35;98639.75;;;27.38;36.65
5703;BME280;2876;51.738;10.050;2023-04-22T10:18:39;98633.06;;;27.48;38.50
5703;BME280;2876;51.738;10.050;2023-04-22T10:24:41;98627.50;;;28.42;37.95
5703;BME280;2876;51.738;10.050;2023-04-22T10:30:45;98626.44;;;28.97;35.91
5703;BME280;2876;51.738;10.050;2023-04-22T10:36:59;98629.25;;;29.30;33.93
5703;BME280;2876;51.738;10.050;2023-04-22T10:43:03;98622.88;;;29.75;33.11
5703;BME280;2876;51.738;10.050;2023-04-22T10:49:09;98611.03;;;30.36;33.24
5703;BME280;2876;51.738;10.050;2023-04-22T10:55:12;98605.84;;;31.74;30.25
5703;BME280;2876;51.738;10.050;2023-04-22T11:01:14;98604.56;;;33.09;30.06
5703;BME280;2876;51.738;10.050;2023-04-22T11:13:23;98586.59;;;34.18;27.34
5703;BME280;2876;51.738;10.050;2023-04-22T11:19:26;98586.28;;;34.79;26.08
5703;BME280;2876;51.738;10.050;2023-04-22T11:25:28;98575.63;;;35.63;25.31
5703;BME280;2876;51.738;10.050;2023-04-22T11:31:30;98576.88;;;35.69;24.59
5703;BME280;2876;51.738;10.050;2023-04-22T11:37:51;98574.84;;;35.63;24.26
5703;BME280;2876;51.738;10.050;2023-04-22T11:43:53;98575.13;;;36.57;24.31
5703;BME280;2876;51.738;10.050;2023-04-22T11:50:00;98574.16;;;37.19;24.24
5703;BME280;2876;51.738;10.050;2023-04-22T11:56:05;98564.09;;;36.16;24.14
5703;BME280;2876;51.738;10.050;2023-04-22T12:02:07;98560.91;;;37.01;24.53
5703;BME280;2876;51.738;10.050;2023-04-22T12:08:16;98551.13;;;36.49;23.90
5703;BME280;2876;51.738;10.050;2023-04-22T12:14:19;98549.44;;;35.75;24.01
5703;BME280;2876;51.738;10.050;2023-04-22T12:20:21;98540.03;;;33.65;26.47
5703;BME280;2876;51.738;10.050;2023-04-22T12:26:26;98532.22;;;34.27;25.49
5703;BME280;2876;51.738;10.050;2023-04-22T12:32:28;98518.78;;;34.97;25.83
5703;BME280;2876;51.738;10.050;2023-04-22T12:38:30;98511.13;;;33.73;25.77
5703;BME280;2876;51.738;10.050;2023-04-22T12:44:33;98509.56;;;31.91;28.92
5703;BME280;2876;51.738;10.050;2023-04-22T12:50:35;98512.72;;;30.82;29.24
5703;BME280;2876;51.738;10.050;2023-04-22T12:56:37;98495.19;;;31.22;30.20
5703;BME280;2876;51.738;10.050;2023-04-22T13:02:43;98496.06;;;31.73;28.24
5703;BME280;2876;51.738;10.050;2023-04-22T13:08:46;98493.91;;;32.95;27.38
5703;BME280;2876;51.738;10.050;2023-04-22T13:14:48;98494.81;;;34.92;26.30
5703;BME280;2876;51.738;10.050;2023-04-22T13:20:50;98495.72;;;35.96;24.08
5703;BME280;2876;51.738;10.050;2023-04-22T13:26:52;98478.03;;;36.43;23.34
5703;BME280;2876;51.738;10.050;2023-04-22T13:32:54;98469.72;;;34.92;23.86
5703;BME280;2876;51.738;10.050;2023-04-22T13:38:56;98457.81;;;32.18;27.16
5703;BME280;2876;51.738;10.050;2023-04-22T13:44:58;98456.06;;;30.51;28.01
5703;BME280;2876;51.738;10.050;2023-04-22T13:51:00;98449.06;;;30.26;26.98
5703;BME280;2876;51.738;10.050;2023-04-22T13:57:02;98444.16;;;29.95;25.66
5703;BME280;2876;51.738;10.050;2023-04-22T14:03:04;98443.56;;;30.01;27.38
5703;BME280;2876;51.738;10.050;2023-04-22T14:09:06;98441.56;;;33.73;22.72
5703;BME280;2876;51.738;10.050;2023-04-22T14:15:09;98429.03;;;34.13;22.52
5703;BME280;2876;51.738;10.050;2023-04-22T14:21:12;98439.09;;;35.99;21.29
5703;BME280;2876;51.738;10.050;2023-04-22T14:27:14;98425.31;;;35.14;20.07
5703;BME280;2876;51.738;10.050;2023-04-22T14:33:16;98425.94;;;33.65;22.02
5703;BME280;2876;51.738;10.050;2023-04-22T14:39:18;98411.66;;;32.10;23.48
5703;BME280;2876;51.738;10.050;2023-04-22T14:45:21;98404.72;;;30.82;25.80
5703;BME280;2876;51.738;10.050;2023-04-22T14:51:24;98406.06;;;29.76;28.11
5703;BME280;2876;51.738;10.050;2023-04-22T14:57:26;98400.97;;;28.68;28.37
5703;BME280;2876;51.738;10.050;2023-04-22T15:03:28;98394.78;;;28.71;29.18
5703;BME280;2876;51.738;10.050;2023-04-22T15:09:30;98397.78;;;31.90;25.88
5703;BME280;2876;51.738;10.050;2023-04-22T15:15:32;98385.50;;;34.01;22.80
5703;BME280;2876;51.738;10.050;2023-04-22T15:21:34;98390.84;;;36.05;21.59
5703;BME280;2876;51.738;10.050;2023-04-22T15:27:37;98396.78;;;35.93;21.96
5703;BME280;2876;51.738;10.050;2023-04-22T15:33:39;98381.72;;;36.12;20.02
5703;BME280;2876;51.738;10.050;2023-04-22T15:39:42;98379.75;;;36.23;20.56
5703;BME280;2876;51.738;10.050;2023-04-22T15:45:44;98361.59;;;35.12;21.87
5703;BME280;2876;51.738;10.050;2023-04-22T15:51:46;98364.50;;;34.82;21.22
5703;BME280;2876;51.738;10.050;2023-04-22T15:57:48;98362.69;;;33.92;22.42
5703;BME280;2876;51.738;10.050;2023-04-22T16:03:50;98370.91;;;33.25;24.32
5703;BME280;2876;51.738;10.050;2023-04-22T16:09:52;98358.28;;;31.97;24.85
5703;BME280;2876;51.738;10.050;2023-04-22T16:15:56;98363.19;;;31.84;23.40
5703;BME280;2876;51.738;10.050;2023-04-22T16:21:58;98356.13;;;32.48;23.56
5703;BME280;2876;51.738;10.050;2023-04-22T16:28:00;98343.84;;;32.72;23.17
5703;BME280;2876;51.738;10.050;2023-04-22T16:34:02;98346.66;;;30.42;25.92
5703;BME280;2876;51.738;10.050;2023-04-22T16:40:05;98336.56;;;29.25;28.46
5703;BME280;2876;51.738;10.050;2023-04-22T16:46:08;98333.09;;;30.21;26.07
5703;BME280;2876;51.738;10.050;2023-04-22T16:52:10;98327.84;;;30.63;25.66
5703;BME280;2876;51.738;10.050;2023-04-22T16:58:12;98319.31;;;31.19;24.97
5703;BME280;2876;51.738;10.050;2023-04-22T17:04:14;98321.19;;;30.20;26.14
5703;BME280;2876;51.738;10.050;2023-04-22T17:10:16;98321.97;;;28.18;27.74
5703;BME280;2876;51.738;10.050;2023-04-22T17:16:18;98321.78;;;26.50;30.98
5703;BME280;2876;51.738;10.050;2023-04-22T17:22:20;98313.25;;;25.04;33.93
5703;BME280;2876;51.738;10.050;2023-04-22T17:28:25;98313.19;;;24.39;37.28
5703;BME280;2876;51.738;10.050;2023-04-22T17:34:27;98312.56;;;24.19;36.24
5703;BME280;2876;51.738;10.050;2023-04-22T17:40:29;98310.00;;;23.33;37.20
5703;BME280;2876;51.738;10.050;2023-04-22T17:46:31;98323.13;;;23.09;39.02
5703;BME280;2876;51.738;10.050;2023-04-22T17:52:33;98326.78;;;22.63;39.37
5703;BME280;2876;51.738;10.050;2023-04-22T17:58:35;98327.72;;;22.25;40.40
5703;BME280;2876;51.738;10.050;2023-04-22T18:04:39;98333.16;;;22.12;41.99
5703;BME280;2876;51.738;10.050;2023-04-22T18:10:41;98356.41;;;21.76;43.32
5703;BME280;2876;51.738;10.050;2023-04-22T18:16:43;98367.09;;;21.35;45.21
5703;BME280;2876;51.738;10.050;2023-04-22T18:22:47;98356.78;;;21.08;45.90
5703;BME280;2876;51.738;10.050;2023-04-22T18:28:50;98371.06;;;20.76;48.12
5703;BME280;2876;51.738;10.050;2023-04-22T18:34:52;98369.19;;;20.47;48.84
5703;BME280;2876;51.738;10.050;2023-04-22T18:40:55;98374.13;;;20.40;49.57
5703;BME280;2876;51.738;10.050;2023-04-22T18:46:57;98384.44;;;20.43;49.75
5703;BME280;2876;51.738;10.050;2023-04-22T18:52:59;98387.81;;;20.35;50.31
5703;BME280;2876;51.738;10.050;2023-04-22T18:59:01;98394.34;;;20.34;48.98
5703;BME280;2876;51.738;10.050;2023-04-22T19:05:03;98389.97;;;20.04;51.38
5703;BME280;2876;51.738;10.050;2023-04-22T19:11:05;98389.88;;;20.14;51.24
5703;BME280;2876;51.738;10.050;2023-04-22T19:17:07;98393.91;;;20.22;52.35
5703;BME280;2876;51.738;10.050;2023-04-22T19:23:09;98400.75;;;19.80;54.10
5703;BME280;2876;51.738;10.050;2023-04-22T19:29:11;98383.81;;;19.88;52.81
5703;BME280;2876;51.738;10.050;2023-04-22T19:35:16;98386.13;;;19.71;55.81
5703;BME280;2876;51.738;10.050;2023-04-22T19:41:18;98385.28;;;19.21;60.77
5703;BME280;2876;51.738;10.050;2023-04-22T19:47:21;98382.75;;;18.85;58.82
5703;BME280;2876;51.738;10.050;2023-04-22T19:53:23;98381.41;;;18.67;58.87
5703;BME280;2876;51.738;10.050;2023-04-22T19:59:27;98384.38;;;18.81;58.31
5703;BME280;2876;51.738;10.050;2023-04-22T20:05:32;98379.41;;;18.98;54.12
5703;BME280;2876;51.738;10.050;2023-04-22T20:11:34;98388.25;;;19.24;51.99
5703;BME280;2876;51.738;10.050;2023-04-22T20:17:37;98390.47;;;19.22;54.61
5703;BME280;2876;51.738;10.050;2023-04-22T20:23:41;98398.66;;;19.12;53.61
5703;BME280;2876;51.738;10.050;2023-04-22T20:29:43;98390.88;;;18.90;54.12
5703;BME280;2876;51.738;10.050;2023-04-22T20:35:46;98385.97;;;18.87;54.00
5703;BME280;2876;51.738;10.050;2023-04-22T20:41:54;98387.94;;;18.71;56.10
5703;BME280;2876;51.738;10.050;2023-04-22T20:47:57;98376.81;;;18.58;55.93
5703;BME280;2876;51.738;10.050;2023-04-22T20:53:59;98387.91;;;18.61;55.41
5703;BME280;2876;51.738;10.050;2023-04-22T21:00:01;98392.56;;;18.50;56.26
5703;BME280;2876;51.738;10.050;2023-04-22T21:06:03;98398.53;;;18.47;56.92
5703;BME280;2876;51.738;10.050;2023-04-22T21:12:06;98398.25;;;18.54;56.33
5703;BME280;2876;51.738;10.050;2023-04-22T21:18:08;98407.25;;;18.29;58.26
5703;BME280;2876;51.738;10.050;2023-04-22T21:24:10;98400.75;;;18.05;58.22
5703;BME280;2876;51.738;10.050;2023-04-22T21:30:15;98408.06;;;18.19;58.20
5703;BME280;2876;51.738;10.050;2023-04-22T21:36:17;98422.97;;;17.76;59.78
5703;BME280;2876;51.738;10.050;2023-04-22T21:42:19;98417.28;;;17.78;60.91
5703;BME280;2876;51.738;10.050;2023-04-22T21:48:21;98419.41;;;17.75;60.89
5703;BME280;2876;51.738;10.050;2023-04-22T21:54:23;98420.56;;;17.95;60.69
5703;BME280;2876;51.738;10.050;2023-04-22T22:00:25;98434.03;;;17.64;62.15
5703;BME280;2876;51.738;10.050;2023-04-22T22:06:27;98426.91;;;17.43;62.78
5703;BME280;2876;51.738;10.050;2023-04-22T22:12:29;98431.50;;;17.32;64.32
5703;BME280;2876;51.738;10.050;2023-04-22T22:18:31;98427.88;;;17.11;65.40
5703;BME280;2876;51.738;10.050;2023-04-22T22:24:33;98427.53;;;16.97;66.04
5703;BME280;2876;51.738;10.050;2023-04-22T22:30:35;98427.78;;;16.91;66.09
5703;BME280;2876;51.738;10.050;2023-04-22T22:36:37;98435.34;;;16.89;66.73
5703;BME280;2876;51.738;10.050;2023-04-22T22:42:39;98430.41;;;16.76;67.82
5703;BME280;2876;51.738;10.050;2023-04-22T22:48:41;98424.53;;;16.52;69.34
5703;BME280;2876;51.738;10.050;2023-04-22T22:54:43;98432.13;;;16.49;71.05
5703;BME280;2876;51.738;10.050;2023-04-22T23:00:45;98437.13;;;16.31;71.36
5703;BME280;2876;51.738;10.050;2023-04-22T23:06:47;98435.47;;;16.30;71.60
5703;BME280;2876;51.738;10.050;2023-04-22T23:12:49;98437.84;;;16.21;72.18
5703;BME280;2876;51.738;10.050;2023-04-22T23:18:51;98429.44;;;16.17;71.71
5703;BME280;2876;51.738;10.050;2023-04-22T23:24:54;98422.72;;;16.25;71.42
5703;BME280;2876;51.738;10.050;2023-04-22T23:30:56;98425.31;;;16.10;71.51
5703;BME280;2876;51.738;10.050;2023-04-22T23:36:58;98422.38;;;16.16;72.81
5703;BME280;2876;51.738;10.050;2023-04-22T23:43:03;98420.88;;;15.98;74.12
5703;BME280;2876;51.738;10.050;2023-04-22T23:49:05;98408.84;;;15.84;74.74
5703;BME280;2876;51.738;10.050;2023-04-22T23:55:12;98412.50;;;15.68;75.33
